Time;durP1;ratioP1;P1;durP2;ratioP2;P2;SDS_P1;SDS_P2;PMS_P1;PMS_P2;Temp;Humidity;BMP_temperature;BMP_pressure;BME280_temperature;BME280_humidity;BME280_pressure;Samples;Min_cycle;Max_cycle;Signal;HPM_P1;HPM_P2
2022/07/03 00:00:05;;;;;;;7.13;2.75;;;;;;;;;;5018718;28;20053;-74
2022/07/03 00:02:32;;;;;;;7.38;3.55;;;;;;;;;;5020315;28;20057;-74
2022/07/03 00:04:59;;;;;;;9.18;3.50;;;;;;;;;;5020206;28;20057;-75
2022/07/03 00:07:28;;;;;;;5.75;2.97;;;;;;;;;;5016609;28;20057;-75
2022/07/03 00:09:55;;;;;;;7.32;3.20;;;;;;;;;;5025008;28;20442;-75
2022/07/03 00:12:22;;;;;;;8.40;3.67;;;;;;;;;;5021479;28;20060;-74
2022/07/03 00:14:50;;;;;;;7.32;3.25;;;;;;;;;;5027962;28;20714;-75
2022/07/03 00:17:18;;;;;;;6.72;3.30;;;;;;;;;;5021333;28;20303;-75
2022/07/03 00:19:45;;;;;;;11.00;3.60;;;;;;;;;;5018746;28;20056;-74
2022/07/03 00:22:13;;;;;;;7.68;3.63;;;;;;;;;;5025118;28;20061;-74
2022/07/03 00:24:44;;;;;;;6.03;3.70;;;;;;;;;;5021046;28;20044;-74
2022/07/03 00:27:12;;;;;;;6.70;3.67;;;;;;;;;;5020233;28;20041;-76
2022/07/03 00:29:40;;;;;;;4.70;3.60;;;;;;;;;;5027830;28;20060;-75
2022/07/03 00:32:09;;;;;;;6.75;2.90;;;;;;;;;;5019490;28;20052;-77
2022/07/03 00:34:37;;;;;;;6.07;3.53;;;;;;;;;;5015118;28;20048;-77
2022/07/03 00:37:05;;;;;;;5.57;3.28;;;;;;;;;;5023390;28;20041;-76
2022/07/03 00:39:32;;;;;;;4.65;3.30;;;;;;;;;;5020693;28;20126;-78
2022/07/03 00:42:03;;;;;;;5.70;3.25;;;;;;;;;;5023294;28;20114;-75
2022/07/03 00:44:30;;;;;;;3.65;3.17;;;;;;;;;;5021424;28;20049;-76
2022/07/03 00:46:58;;;;;;;6.15;3.30;;;;;;;;;;5021334;28;20080;-77
2022/07/03 00:49:25;;;;;;;4.90;3.35;;;;;;;;;;5019506;28;20417;-77
2022/07/03 00:51:53;;;;;;;6.63;3.40;;;;;;;;;;5026065;28;20696;-74
2022/07/03 00:54:21;;;;;;;7.25;3.35;;;;;;;;;;5020909;28;20052;-77
2022/07/03 00:56:52;;;;;;;8.68;3.58;;;;;;;;;;5020922;28;20037;-76
2022/07/03 00:59:21;;;;;;;4.35;3.55;;;;;;;;;;5018386;28;20538;-75
2022/07/03 01:01:50;;;;;;;5.68;3.25;;;;;;;;;;5028993;28;20080;-75
2022/07/03 01:04:22;;;;;;;6.30;3.75;;;;;;;;;;5016458;28;20087;-76
2022/07/03 01:06:54;;;;;;;7.05;3.35;;;;;;;;;;5021423;28;20049;-75
2022/07/03 01:09:28;;;;;;;5.32;3.20;;;;;;;;;;5020859;28;20507;-74
2022/07/03 01:11:59;;;;;;;5.38;3.60;;;;;;;;;;5021942;28;20045;-75
2022/07/03 01:14:29;;;;;;;7.00;3.78;;;;;;;;;;5037117;28;20734;-74
2022/07/03 01:16:59;;;;;;;6.20;3.72;;;;;;;;;;5030938;28;20715;-75
2022/07/03 01:19:38;;;;;;;5.60;3.85;;;;;;;;;;5019841;28;20120;-76
2022/07/03 01:22:16;;;;;;;6.03;3.88;;;;;;;;;;5020224;28;20051;-75
2022/07/03 01:24:54;;;;;;;5.93;3.63;;;;;;;;;;5015970;28;20045;-78
2022/07/03 01:27:25;;;;;;;4.03;3.42;;;;;;;;;;5011757;28;20151;-75
2022/07/03 01:29:54;;;;;;;6.03;3.72;;;;;;;;;;5035905;28;20086;-76
2022/07/03 01:32:24;;;;;;;4.28;3.65;;;;;;;;;;5023760;28;20057;-75
2022/07/03 01:34:54;;;;;;;6.53;3.90;;;;;;;;;;5021291;28;20049;-75
2022/07/03 01:37:23;;;;;;;6.82;3.80;;;;;;;;;;5021576;28;20127;-76
2022/07/03 01:39:53;;;;;;;7.05;3.67;;;;;;;;;;5018800;28;20045;-74
2022/07/03 01:42:20;;;;;;;6.82;3.78;;;;;;;;;;5018236;28;20045;-74
2022/07/03 01:44:51;;;;;;;5.63;3.60;;;;;;;;;;5014574;28;20052;-77
2022/07/03 01:47:19;;;;;;;4.22;3.20;;;;;;;;;;5016316;28;20132;-77
2022/07/03 01:49:47;;;;;;;6.93;3.47;;;;;;;;;;5022248;28;20403;-76
2022/07/03 01:52:16;;;;;;;6.63;3.85;;;;;;;;;;5016509;28;20052;-77
2022/07/03 01:54:44;;;;;;;6.25;3.50;;;;;;;;;;5026822;28;20055;-74
2022/07/03 01:57:11;;;;;;;4.25;3.10;;;;;;;;;;5014082;28;20095;-74
2022/07/03 01:59:38;;;;;;;4.70;3.47;;;;;;;;;;5021914;28;20057;-76
2022/07/03 02:02:15;;;;;;;7.53;3.47;;;;;;;;;;5023476;28;20855;-76
2022/07/03 02:04:45;;;;;;;4.43;3.38;;;;;;;;;;5010590;28;20049;-76
2022/07/03 02:07:15;;;;;;;4.28;3.20;;;;;;;;;;5022884;28;20041;-75
2022/07/03 02:09:46;;;;;;;4.22;2.80;;;;;;;;;;5021292;28;20048;-76
2022/07/03 02:12:14;;;;;;;4.97;3.25;;;;;;;;;;5018320;28;20048;-75
2022/07/03 02:14:42;;;;;;;3.65;3.05;;;;;;;;;;5021497;28;20075;-75
2022/07/03 02:17:14;;;;;;;4.82;3.20;;;;;;;;;;5020320;28;20049;-73
2022/07/03 02:19:45;;;;;;;5.38;3.20;;;;;;;;;;5018900;28;20045;-74
2022/07/03 02:22:13;;;;;;;7.05;3.40;;;;;;;;;;5018730;28;20052;-74
2022/07/03 02:24:43;;;;;;;4.00;2.97;;;;;;;;;;5017602;28;20538;-74
2022/07/03 02:27:14;;;;;;;6.15;3.03;;;;;;;;;;5018604;28;20072;-74
2022/07/03 02:29:44;;;;;;;5.82;3.03;;;;;;;;;;5022870;28;20491;-74
2022/07/03 02:32:15;;;;;;;3.78;3.28;;;;;;;;;;5015851;28;20060;-74
2022/07/03 02:34:46;;;;;;;3.20;2.90;;;;;;;;;;5014141;28;20110;-75
2022/07/03 02:37:16;;;;;;;4.78;3.40;;;;;;;;;;5023537;28;20072;-76
2022/07/03 02:39:46;;;;;;;4.82;3.10;;;;;;;;;;5018725;28;20049;-74
2022/07/03 02:42:18;;;;;;;5.43;2.97;;;;;;;;;;5023957;28;20080;-77
2022/07/03 02:44:47;;;;;;;7.03;3.00;;;;;;;;;;5026215;28;20603;-74
2022/07/03 02:47:23;;;;;;;6.15;3.35;;;;;;;;;;5028588;28;20044;-74
2022/07/03 02:49:55;;;;;;;4.35;2.63;;;;;;;;;;5027829;28;20049;-74
2022/07/03 02:52:26;;;;;;;7.07;3.15;;;;;;;;;;5023054;28;20760;-74
2022/07/03 02:54:54;;;;;;;8.07;3.40;;;;;;;;;;5023014;28;20057;-75
2022/07/03 02:57:22;;;;;;;6.40;3.80;;;;;;;;;;5023334;28;20383;-76
2022/07/03 02:59:56;;;;;;;5.03;3.60;;;;;;;;;;5024448;28;20654;-74
2022/07/03 03:02:35;;;;;;;6.85;3.88;;;;;;;;;;5022986;28;20514;-73
2022/07/03 03:05:07;;;;;;;5.28;3.50;;;;;;;;;;5023572;28;20048;-74
2022/07/03 03:07:35;;;;;;;4.43;3.30;;;;;;;;;;5021826;28;20045;-75
2022/07/03 03:10:03;;;;;;;6.80;3.10;;;;;;;;;;5025996;28;20059;-77
2022/07/03 03:12:32;;;;;;;5.93;2.63;;;;;;;;;;5033421;28;20832;-75
2022/07/03 03:15:02;;;;;;;5.10;2.90;;;;;;;;;;5027725;28;20114;-74
2022/07/03 03:17:38;;;;;;;5.90;2.85;;;;;;;;;;5033155;28;20041;-75
2022/07/03 03:20:06;;;;;;;6.13;2.90;;;;;;;;;;5023010;28;20049;-73
2022/07/03 03:22:36;;;;;;;6.75;2.97;;;;;;;;;;5021635;28;20068;-75
2022/07/03 03:25:04;;;;;;;6.38;2.97;;;;;;;;;;5022025;28;20050;-75
2022/07/03 03:27:31;;;;;;;9.00;3.22;;;;;;;;;;5021783;28;21292;-74
2022/07/03 03:29:59;;;;;;;6.35;2.97;;;;;;;;;;5026014;28;20049;-74
2022/07/03 03:32:27;;;;;;;5.07;2.85;;;;;;;;;;5024595;28;20056;-75
2022/07/03 03:34:56;;;;;;;8.10;3.15;;;;;;;;;;5024137;28;20103;-75
2022/07/03 03:37:23;;;;;;;5.90;3.00;;;;;;;;;;5020005;28;20045;-74
2022/07/03 03:39:50;;;;;;;6.22;3.38;;;;;;;;;;5025896;28;20095;-73
2022/07/03 03:42:18;;;;;;;6.40;3.17;;;;;;;;;;5025569;28;20618;-75
2022/07/03 03:44:45;;;;;;;6.43;3.20;;;;;;;;;;5018617;28;20055;-74
2022/07/03 03:47:12;;;;;;;4.57;2.88;;;;;;;;;;5018881;28;20083;-73
2022/07/03 03:49:39;;;;;;;7.60;3.28;;;;;;;;;;5018774;28;20554;-76
2022/07/03 03:52:08;;;;;;;5.72;3.25;;;;;;;;;;5026925;28;20392;-74
2022/07/03 03:54:35;;;;;;;5.97;3.20;;;;;;;;;;5020209;28;20052;-76
2022/07/03 03:57:16;;;;;;;10.52;3.50;;;;;;;;;;5021223;28;20075;-75
2022/07/03 03:59:43;;;;;;;7.95;3.15;;;;;;;;;;5011586;28;20088;-74
2022/07/03 04:02:10;;;;;;;7.40;3.28;;;;;;;;;;5005830;28;20049;-76
2022/07/03 04:04:38;;;;;;;5.53;3.25;;;;;;;;;;4996594;28;20064;-74
2022/07/03 04:07:05;;;;;;;6.05;3.58;;;;;;;;;;4997684;28;20041;-74
2022/07/03 04:09:34;;;;;;;6.38;3.60;;;;;;;;;;4998520;28;20056;-76
2022/07/03 04:12:01;;;;;;;6.57;3.17;;;;;;;;;;5003171;28;20048;-74
2022/07/03 04:14:28;;;;;;;5.75;3.17;;;;;;;;;;5005516;28;20045;-75
2022/07/03 04:16:56;;;;;;;6.60;3.28;;;;;;;;;;5003144;28;20038;-75
2022/07/03 04:19:23;;;;;;;4.00;3.00;;;;;;;;;;4998182;28;20050;-74
2022/07/03 04:21:51;;;;;;;8.10;3.28;;;;;;;;;;5007679;28;20056;-75
2022/07/03 04:24:18;;;;;;;7.00;3.20;;;;;;;;;;5001975;28;20045;-75
2022/07/03 04:26:47;;;;;;;5.95;3.67;;;;;;;;;;5005537;28;20111;-74
2022/07/03 04:29:15;;;;;;;6.60;3.42;;;;;;;;;;5005982;28;20111;-74
2022/07/03 04:31:42;;;;;;;5.72;3.70;;;;;;;;;;5004665;28;20475;-76
2022/07/03 04:34:09;;;;;;;8.85;3.90;;;;;;;;;;4997680;28;20060;-73
2022/07/03 04:36:36;;;;;;;7.07;4.15;;;;;;;;;;5004151;28;20046;-77
2022/07/03 04:39:04;;;;;;;7.70;4.65;;;;;;;;;;5003461;28;20060;-75
2022/07/03 04:41:31;;;;;;;6.70;4.47;;;;;;;;;;4994558;28;20408;-73
2022/07/03 04:43:59;;;;;;;10.30;4.28;;;;;;;;;;4999371;28;20061;-76
2022/07/03 04:46:27;;;;;;;10.65;3.92;;;;;;;;;;5005400;28;20399;-74
2022/07/03 04:48:54;;;;;;;5.95;3.38;;;;;;;;;;5000342;28;20049;-74
2022/07/03 04:51:21;;;;;;;5.97;3.15;;;;;;;;;;5001772;28;20064;-77
2022/07/03 04:53:48;;;;;;;4.90;2.95;;;;;;;;;;5005006;28;20139;-75
2022/07/03 04:56:16;;;;;;;6.45;3.10;;;;;;;;;;5007448;28;20057;-74
2022/07/03 04:58:43;;;;;;;5.60;3.28;;;;;;;;;;5009531;28;20053;-74
2022/07/03 05:01:11;;;;;;;7.80;3.28;;;;;;;;;;5022526;28;20051;-75
2022/07/03 05:03:39;;;;;;;9.73;3.90;;;;;;;;;;5025336;28;20099;-74
2022/07/03 05:06:06;;;;;;;5.50;3.50;;;;;;;;;;5027732;28;20061;-76
2022/07/03 05:08:33;;;;;;;5.82;3.22;;;;;;;;;;5021761;28;20048;-75
2022/07/03 05:11:01;;;;;;;7.85;3.78;;;;;;;;;;5023028;28;20057;-75
2022/07/03 05:13:28;;;;;;;4.95;3.30;;;;;;;;;;5028757;28;20399;-74
2022/07/03 05:15:55;;;;;;;7.07;3.28;;;;;;;;;;5023243;28;20060;-76
2022/07/03 05:18:24;;;;;;;6.55;3.45;;;;;;;;;;5022355;28;20047;-75
2022/07/03 05:20:51;;;;;;;6.05;3.08;;;;;;;;;;5025497;28;20474;-75
2022/07/03 05:23:18;;;;;;;7.25;3.33;;;;;;;;;;5025119;28;20056;-74
2022/07/03 05:25:45;;;;;;;5.63;3.05;;;;;;;;;;5020634;28;20134;-74
2022/07/03 05:28:13;;;;;;;5.45;2.83;;;;;;;;;;5023800;28;20041;-75
2022/07/03 05:30:40;;;;;;;5.07;2.90;;;;;;;;;;5019419;28;20077;-74
2022/07/03 05:33:07;;;;;;;6.32;2.70;;;;;;;;;;5025649;28;20136;-75
2022/07/03 05:35:36;;;;;;;5.13;2.60;;;;;;;;;;5023974;28;20055;-75
2022/07/03 05:38:03;;;;;;;5.80;2.72;;;;;;;;;;5023032;28;20041;-74
2022/07/03 05:40:30;;;;;;;4.40;2.45;;;;;;;;;;5024588;28;20154;-75
2022/07/03 05:42:57;;;;;;;5.93;2.40;;;;;;;;;;5023466;28;20102;-76
2022/07/03 05:45:24;;;;;;;5.40;2.70;;;;;;;;;;5014775;28;20061;-75
2022/07/03 05:47:52;;;;;;;7.18;3.08;;;;;;;;;;5014520;28;20176;-74
2022/07/03 05:50:19;;;;;;;3.75;2.30;;;;;;;;;;5610454;22;20021;-67
2022/07/03 05:52:48;;;;;;;5.20;3.05;;;;;;;;;;5014379;28;20060;-68
2022/07/03 05:55:15;;;;;;;4.78;2.35;;;;;;;;;;5014908;28;20045;-68
2022/07/03 05:57:42;;;;;;;6.10;2.65;;;;;;;;;;5018138;28;20045;-69
2022/07/03 06:00:10;;;;;;;4.78;2.50;;;;;;;;;;5005237;28;20053;-68
2022/07/03 06:02:37;;;;;;;7.95;2.15;;;;;;;;;;5016556;28;20586;-68
2022/07/03 06:05:04;;;;;;;4.82;2.00;;;;;;;;;;5019608;28;20045;-68
2022/07/03 06:07:32;;;;;;;5.88;2.13;;;;;;;;;;5006270;28;20050;-69
2022/07/03 06:10:00;;;;;;;7.13;1.77;;;;;;;;;;5003860;28;20064;-68
2022/07/03 06:12:27;;;;;;;5.63;1.40;;;;;;;;;;5020286;28;21416;-68
2022/07/03 06:14:55;;;;;;;4.70;1.52;;;;;;;;;;4999652;28;20084;-67
2022/07/03 06:17:22;;;;;;;7.18;1.90;;;;;;;;;;5018071;28;20568;-68
2022/07/03 06:19:49;;;;;;;4.10;1.48;;;;;;;;;;5007082;28;20712;-68
2022/07/03 06:22:16;;;;;;;5.78;1.58;;;;;;;;;;5018969;28;20049;-69
2022/07/03 06:24:43;;;;;;;5.85;1.70;;;;;;;;;;5023844;28;20045;-69
2022/07/03 06:27:12;;;;;;;5.95;1.25;;;;;;;;;;5021170;28;20493;-68
2022/07/03 06:29:39;;;;;;;4.60;1.13;;;;;;;;;;5022492;28;20045;-69
2022/07/03 06:32:07;;;;;;;7.07;1.33;;;;;;;;;;5006580;28;20068;-68
2022/07/03 06:34:34;;;;;;;8.65;1.17;;;;;;;;;;5024148;28;21079;-69
2022/07/03 06:37:01;;;;;;;6.95;1.10;;;;;;;;;;5005688;28;20320;-69
2022/07/03 06:39:28;;;;;;;7.55;1.30;;;;;;;;;;5023331;28;20388;-69
2022/07/03 06:41:55;;;;;;;5.57;1.02;;;;;;;;;;5009246;28;20099;-69
2022/07/03 06:44:24;;;;;;;5.15;1.17;;;;;;;;;;5007253;28;20045;-70
2022/07/03 06:46:51;;;;;;;8.45;1.45;;;;;;;;;;5024800;28;20053;-69
2022/07/03 06:49:18;;;;;;;5.07;1.15;;;;;;;;;;5006783;28;20065;-69
2022/07/03 06:51:46;;;;;;;5.82;1.30;;;;;;;;;;5018767;28;20066;-69
2022/07/03 06:54:13;;;;;;;5.22;0.95;;;;;;;;;;5022638;28;20049;-69
2022/07/03 06:56:42;;;;;;;4.15;1.10;;;;;;;;;;5020442;28;20573;-69
2022/07/03 06:59:09;;;;;;;3.20;0.90;;;;;;;;;;5005034;28;20049;-68
2022/07/03 07:01:38;;;;;;;6.00;1.17;;;;;;;;;;5017802;28;20050;-68
2022/07/03 07:04:05;;;;;;;7.82;1.20;;;;;;;;;;5016722;28;20056;-69
2022/07/03 07:06:32;;;;;;;8.20;1.30;;;;;;;;;;5021878;28;20107;-69
2022/07/03 07:08:59;;;;;;;6.57;1.20;;;;;;;;;;5022603;28;20053;-68
2022/07/03 07:11:27;;;;;;;5.93;1.10;;;;;;;;;;5022411;28;20045;-69
2022/07/03 07:13:54;;;;;;;6.38;1.30;;;;;;;;;;5023621;28;20057;-69
2022/07/03 07:16:21;;;;;;;5.38;1.40;;;;;;;;;;5024227;28;20616;-69
2022/07/03 07:18:50;;;;;;;5.68;1.10;;;;;;;;;;5022886;28;20056;-69
2022/07/03 07:21:17;;;;;;;6.45;1.45;;;;;;;;;;5020944;28;20065;-69
2022/07/03 07:23:44;;;;;;;7.00;1.52;;;;;;;;;;5023227;28;20049;-69
2022/07/03 07:26:11;;;;;;;5.93;1.58;;;;;;;;;;5022993;28;20049;-69
2022/07/03 07:28:39;;;;;;;7.50;1.27;;;;;;;;;;5020696;28;20046;-69
2022/07/03 07:31:06;;;;;;;6.72;1.50;;;;;;;;;;5022750;28;20057;-69
2022/07/03 07:33:33;;;;;;;7.32;1.38;;;;;;;;;;5022706;28;20065;-68
2022/07/03 07:36:02;;;;;;;7.25;1.00;;;;;;;;;;5022177;28;20053;-69
2022/07/03 07:38:29;;;;;;;6.63;1.00;;;;;;;;;;5017387;28;20080;-69
2022/07/03 07:40:56;;;;;;;5.90;1.30;;;;;;;;;;5023131;28;20054;-69
2022/07/03 07:43:23;;;;;;;7.10;1.15;;;;;;;;;;5001936;28;20128;-68
2022/07/03 07:45:50;;;;;;;5.30;1.33;;;;;;;;;;5019071;28;20050;-69
2022/07/03 07:48:18;;;;;;;6.22;1.17;;;;;;;;;;5023081;28;20079;-68
2022/07/03 07:50:45;;;;;;;6.22;1.15;;;;;;;;;;5021326;28;20107;-69
2022/07/03 07:53:14;;;;;;;9.68;1.00;;;;;;;;;;5019318;28;20049;-69
2022/07/03 07:55:41;;;;;;;6.00;1.48;;;;;;;;;;5003924;28;20042;-69
2022/07/03 07:58:09;;;;;;;5.07;1.25;;;;;;;;;;5010359;28;20046;-69
2022/07/03 08:00:36;;;;;;;6.70;1.30;;;;;;;;;;5022615;28;20126;-68
2022/07/03 08:05:48;;;;;;;6.13;1.30;;;;;;;;;;5024724;28;20041;-69
2022/07/03 08:08:18;;;;;;;8.38;1.60;;;;;;;;;;5016583;28;20053;-69
2022/07/03 08:10:46;;;;;;;11.32;1.88;;;;;;;;;;5022770;28;20049;-69
2022/07/03 08:13:14;;;;;;;8.43;1.63;;;;;;;;;;5005630;28;20061;-69
2022/07/03 08:15:41;;;;;;;4.85;1.23;;;;;;;;;;5001100;28;20477;-69
2022/07/03 08:18:09;;;;;;;8.30;1.45;;;;;;;;;;5018201;28;20045;-69
2022/07/03 08:20:36;;;;;;;7.88;1.60;;;;;;;;;;4997120;28;20093;-69
2022/07/03 08:23:03;;;;;;;6.07;1.25;;;;;;;;;;5019665;28;20532;-69
2022/07/03 08:25:35;;;;;;;7.28;1.50;;;;;;;;;;5000098;28;20064;-69
2022/07/03 08:28:02;;;;;;;4.40;1.20;;;;;;;;;;5023027;28;20049;-69
2022/07/03 08:30:29;;;;;;;6.28;1.33;;;;;;;;;;5018994;28;20053;-69
2022/07/03 08:32:57;;;;;;;8.02;1.50;;;;;;;;;;5001483;28;20057;-69
2022/07/03 08:35:25;;;;;;;10.32;1.77;;;;;;;;;;5019459;28;20150;-69
2022/07/03 08:37:52;;;;;;;5.82;1.35;;;;;;;;;;5021105;28;20037;-69
2022/07/03 08:40:20;;;;;;;6.05;1.52;;;;;;;;;;5002427;28;20065;-69
2022/07/03 08:42:49;;;;;;;4.97;1.15;;;;;;;;;;5019409;28;20052;-69
2022/07/03 08:45:17;;;;;;;5.80;1.30;;;;;;;;;;5018317;28;20395;-69
2022/07/03 08:47:45;;;;;;;5.80;1.33;;;;;;;;;;4999123;28;20050;-69
2022/07/03 08:50:13;;;;;;;9.02;1.55;;;;;;;;;;5017905;28;20058;-69
2022/07/03 08:52:40;;;;;;;7.95;1.90;;;;;;;;;;5019944;28;20050;-69
2022/07/03 08:55:08;;;;;;;6.82;1.38;;;;;;;;;;5019568;28;20726;-69
2022/07/03 08:57:36;;;;;;;7.43;1.77;;;;;;;;;;5013397;28;20049;-69
2022/07/03 09:00:06;;;;;;;6.05;1.55;;;;;;;;;;5018763;28;20050;-69
2022/07/03 09:02:33;;;;;;;4.85;1.45;;;;;;;;;;5018456;28;20534;-69
2022/07/03 09:05:01;;;;;;;8.88;1.73;;;;;;;;;;5020507;28;20061;-68
2022/07/03 09:07:29;;;;;;;5.38;1.27;;;;;;;;;;5000979;28;20061;-69
2022/07/03 09:09:56;;;;;;;6.30;1.50;;;;;;;;;;5022974;28;20056;-68
2022/07/03 09:12:24;;;;;;;7.47;1.60;;;;;;;;;;5016337;28;20053;-69
2022/07/03 09:14:51;;;;;;;5.32;1.65;;;;;;;;;;4996886;28;20111;-69
2022/07/03 09:17:20;;;;;;;6.45;1.50;;;;;;;;;;5004793;28;20480;-68
2022/07/03 09:19:48;;;;;;;9.15;1.80;;;;;;;;;;5002247;28;20038;-69
2022/07/03 09:22:21;;;;;;;7.43;1.70;;;;;;;;;;5017262;28;20053;-69
2022/07/03 09:24:49;;;;;;;5.95;1.60;;;;;;;;;;5007320;28;20049;-69
2022/07/03 09:27:17;;;;;;;8.05;1.77;;;;;;;;;;5018132;28;20072;-69
2022/07/03 09:29:51;;;;;;;10.32;1.67;;;;;;;;;;5017539;28;20050;-69
2022/07/03 09:32:23;;;;;;;7.80;2.05;;;;;;;;;;5000836;28;20045;-69
2022/07/03 09:34:50;;;;;;;7.43;1.70;;;;;;;;;;5003052;28;20053;-69
2022/07/03 09:37:25;;;;;;;6.78;1.67;;;;;;;;;;5019058;28;20050;-69
2022/07/03 09:39:58;;;;;;;9.57;1.55;;;;;;;;;;5015009;28;20100;-69
2022/07/03 09:42:25;;;;;;;9.05;2.03;;;;;;;;;;5020328;28;20049;-69
2022/07/03 09:44:55;;;;;;;9.82;2.30;;;;;;;;;;5021301;28;20046;-69
2022/07/03 09:47:24;;;;;;;11.43;2.88;;;;;;;;;;5015340;28;20056;-69
2022/07/03 09:49:54;;;;;;;15.93;2.92;;;;;;;;;;5016367;28;20038;-69
2022/07/03 09:52:28;;;;;;;10.15;2.20;;;;;;;;;;5014851;28;20072;-68
2022/07/03 09:54:56;;;;;;;12.30;2.22;;;;;;;;;;5014439;28;20049;-69
2022/07/03 09:57:23;;;;;;;12.25;2.00;;;;;;;;;;5002215;28;20608;-69
2022/07/03 09:59:51;;;;;;;11.95;2.38;;;;;;;;;;5021821;28;20143;-69
2022/07/03 10:02:18;;;;;;;11.82;2.30;;;;;;;;;;5001421;28;20058;-69
2022/07/03 10:04:47;;;;;;;7.80;1.83;;;;;;;;;;5012131;28;20056;-69
2022/07/03 10:07:14;;;;;;;9.52;2.53;;;;;;;;;;5015845;28;20057;-69
2022/07/03 10:09:41;;;;;;;6.22;1.73;;;;;;;;;;4997287;28;20389;-69
2022/07/03 10:12:09;;;;;;;10.35;1.88;;;;;;;;;;5017746;28;20110;-69
2022/07/03 10:14:36;;;;;;;10.07;2.08;;;;;;;;;;5011040;28;20492;-69
2022/07/03 10:17:03;;;;;;;8.98;1.80;;;;;;;;;;5019229;28;20483;-69
2022/07/03 10:19:31;;;;;;;8.68;1.83;;;;;;;;;;5020837;28;20060;-69
2022/07/03 10:22:02;;;;;;;6.10;1.60;;;;;;;;;;5020256;28;20054;-69
2022/07/03 10:24:30;;;;;;;6.05;1.80;;;;;;;;;;5021503;28;20141;-69
2022/07/03 10:26:58;;;;;;;7.30;1.70;;;;;;;;;;5013388;28;20057;-68
2022/07/03 10:29:26;;;;;;;6.07;1.23;;;;;;;;;;5015879;28;20153;-69
2022/07/03 10:31:53;;;;;;;9.52;1.88;;;;;;;;;;5019353;28;20048;-69
2022/07/03 10:34:23;;;;;;;8.30;1.83;;;;;;;;;;5021566;28;20049;-69
2022/07/03 10:36:53;;;;;;;5.75;1.60;;;;;;;;;;5005156;28;20056;-69
2022/07/03 10:39:28;;;;;;;5.65;1.55;;;;;;;;;;5013005;28;20045;-69
2022/07/03 10:44:51;;;;;;;5.13;1.40;;;;;;;;;;5019568;28;20439;-69
2022/07/03 10:47:41;;;;;;;4.25;1.30;;;;;;;;;;5014751;28;20099;-69
2022/07/03 10:50:10;;;;;;;4.72;1.23;;;;;;;;;;5017350;28;20048;-69
2022/07/03 10:52:37;;;;;;;4.95;1.00;;;;;;;;;;5015096;28;20108;-69
2022/07/03 10:55:07;;;;;;;3.72;1.17;;;;;;;;;;5016424;28;20061;-70
2022/07/03 10:57:34;;;;;;;5.20;1.30;;;;;;;;;;5018983;28;20055;-69
2022/07/03 11:00:17;;;;;;;4.57;1.23;;;;;;;;;;5014959;28;20462;-69
2022/07/03 11:02:45;;;;;;;5.03;1.27;;;;;;;;;;5015941;28;20053;-69
2022/07/03 11:05:19;;;;;;;6.53;1.10;;;;;;;;;;5018490;28;20054;-69
2022/07/03 11:08:05;;;;;;;5.75;1.30;;;;;;;;;;5014359;28;20077;-69
2022/07/03 11:10:35;;;;;;;3.05;1.08;;;;;;;;;;5004250;28;20046;-69
2022/07/03 11:13:04;;;;;;;4.78;1.17;;;;;;;;;;5024471;28;20053;-69
2022/07/03 11:15:32;;;;;;;3.80;1.35;;;;;;;;;;5023739;28;21421;-69
2022/07/03 11:18:09;;;;;;;2.83;1.10;;;;;;;;;;5014460;28;20050;-69
2022/07/03 11:20:38;;;;;;;6.13;1.50;;;;;;;;;;5023829;28;20049;-69
2022/07/03 11:23:12;;;;;;;5.40;1.33;;;;;;;;;;5021372;28;20056;-69
2022/07/03 11:25:41;;;;;;;3.63;1.08;;;;;;;;;;5017643;28;20052;-67
2022/07/03 11:28:09;;;;;;;3.95;1.20;;;;;;;;;;5014392;28;20054;-67
2022/07/03 11:30:36;;;;;;;5.53;1.38;;;;;;;;;;5022464;28;20115;-67
2022/07/03 11:33:03;;;;;;;3.92;1.00;;;;;;;;;;5023476;28;20045;-67
2022/07/03 11:35:51;;;;;;;3.45;1.30;;;;;;;;;;4996123;28;20049;-67
2022/07/03 11:38:23;;;;;;;3.30;1.02;;;;;;;;;;5020549;28;20045;-66
2022/07/03 11:40:53;;;;;;;3.00;0.90;;;;;;;;;;5017881;28;20045;-66
2022/07/03 11:43:20;;;;;;;4.30;0.88;;;;;;;;;;5019335;28;20045;-67
2022/07/03 11:45:48;;;;;;;4.82;0.93;;;;;;;;;;5024249;28;20052;-67
2022/07/03 11:48:16;;;;;;;3.42;1.02;;;;;;;;;;5019391;28;20833;-67
2022/07/03 11:50:44;;;;;;;4.10;1.25;;;;;;;;;;5021369;28;20053;-66
2022/07/03 11:53:18;;;;;;;5.40;1.23;;;;;;;;;;5007661;28;20057;-67
2022/07/03 11:55:49;;;;;;;4.47;1.00;;;;;;;;;;5023354;28;20052;-67
2022/07/03 11:58:18;;;;;;;4.10;1.02;;;;;;;;;;5016388;28;20541;-67
2022/07/03 12:00:45;;;;;;;3.22;1.25;;;;;;;;;;5014740;28;20137;-67
2022/07/03 12:03:16;;;;;;;4.35;1.20;;;;;;;;;;5023111;28;20389;-67
2022/07/03 12:05:58;;;;;;;5.82;1.17;;;;;;;;;;5018388;28;20056;-67
2022/07/03 12:08:26;;;;;;;6.00;1.50;;;;;;;;;;5015563;28;20165;-67
2022/07/03 12:10:57;;;;;;;2.83;1.02;;;;;;;;;;5016514;28;20037;-67
2022/07/03 12:13:27;;;;;;;4.38;1.00;;;;;;;;;;5008886;28;20065;-67
2022/07/03 12:15:54;;;;;;;3.25;1.13;;;;;;;;;;5022098;28;20057;-67
2022/07/03 12:18:22;;;;;;;3.53;1.20;;;;;;;;;;5018132;28;20053;-67
2022/07/03 12:20:49;;;;;;;6.35;1.45;;;;;;;;;;5015711;28;20091;-66
2022/07/03 12:23:16;;;;;;;4.35;1.27;;;;;;;;;;5021379;28;20570;-66
2022/07/03 12:25:43;;;;;;;4.80;1.10;;;;;;;;;;5001910;28;20046;-67
2022/07/03 12:28:11;;;;;;;2.38;1.00;;;;;;;;;;5000019;28;20062;-66
2022/07/03 12:30:40;;;;;;;4.18;1.20;;;;;;;;;;5019601;28;20049;-67
2022/07/03 12:33:08;;;;;;;2.85;1.08;;;;;;;;;;5017208;28;20542;-67
2022/07/03 12:35:35;;;;;;;3.25;1.00;;;;;;;;;;5017947;28;20053;-67
2022/07/03 12:38:02;;;;;;;3.78;1.10;;;;;;;;;;5019421;28;20050;-67
2022/07/03 12:40:29;;;;;;;2.30;0.80;;;;;;;;;;5014386;28;20049;-67
2022/07/03 12:42:58;;;;;;;2.20;0.80;;;;;;;;;;5001323;28;20046;-67
2022/07/03 12:45:26;;;;;;;3.03;1.40;;;;;;;;;;5015924;28;20133;-66
2022/07/03 12:48:01;;;;;;;3.95;0.95;;;;;;;;;;5020930;28;20053;-66
2022/07/03 12:50:44;;;;;;;3.95;0.98;;;;;;;;;;5019060;28;20469;-66
2022/07/03 12:53:11;;;;;;;2.13;0.73;;;;;;;;;;5003292;28;20053;-67
2022/07/03 12:55:46;;;;;;;2.13;0.80;;;;;;;;;;5021309;28;20041;-67
2022/07/03 13:00:59;;;;;;;3.00;1.10;;;;;;;;;;5022599;28;20041;-67
2022/07/03 13:03:32;;;;;;;3.60;1.00;;;;;;;;;;5021855;28;20049;-67
2022/07/03 13:05:59;;;;;;;1.95;0.90;;;;;;;;;;5016521;28;20451;-66
2022/07/03 13:08:26;;;;;;;2.67;1.00;;;;;;;;;;5006235;28;20057;-67
2022/07/03 13:10:58;;;;;;;3.45;1.08;;;;;;;;;;5020468;28;20052;-67
2022/07/03 13:13:25;;;;;;;3.60;1.20;;;;;;;;;;5020540;28;20046;-66
2022/07/03 13:15:53;;;;;;;4.22;1.10;;;;;;;;;;5018662;28;20515;-66
2022/07/03 13:18:21;;;;;;;2.75;1.00;;;;;;;;;;5015299;28;20061;-67
2022/07/03 13:20:50;;;;;;;4.28;0.93;;;;;;;;;;5019661;28;20061;-67
2022/07/03 13:23:18;;;;;;;2.42;0.90;;;;;;;;;;5022227;28;20408;-67
2022/07/03 13:25:45;;;;;;;4.55;1.10;;;;;;;;;;5019562;28;20053;-67
2022/07/03 13:28:13;;;;;;;3.45;1.20;;;;;;;;;;5017405;28;20088;-67
2022/07/03 13:30:41;;;;;;;3.08;1.10;;;;;;;;;;5021414;28;20483;-67
2022/07/03 13:33:09;;;;;;;2.60;1.30;;;;;;;;;;5019861;28;20541;-66
2022/07/03 13:35:37;;;;;;;3.42;0.85;;;;;;;;;;5020417;28;20459;-66
2022/07/03 13:38:05;;;;;;;3.90;1.00;;;;;;;;;;5018855;28;20050;-66
2022/07/03 13:40:34;;;;;;;2.45;0.98;;;;;;;;;;4993886;28;20053;-66
2022/07/03 13:43:01;;;;;;;3.17;1.10;;;;;;;;;;5015512;28;20050;-66
2022/07/03 13:45:28;;;;;;;3.65;1.00;;;;;;;;;;5010875;28;20501;-66
2022/07/03 13:47:55;;;;;;;3.45;1.10;;;;;;;;;;5016494;28;20057;-66
2022/07/03 13:50:23;;;;;;;2.60;1.10;;;;;;;;;;5020380;28;20127;-66
2022/07/03 13:52:50;;;;;;;2.55;1.02;;;;;;;;;;5016464;28;20405;-67
2022/07/03 13:55:19;;;;;;;3.40;1.10;;;;;;;;;;5019537;28;20655;-66
2022/07/03 13:57:46;;;;;;;3.38;1.15;;;;;;;;;;5020987;28;20053;-66
2022/07/03 14:00:15;;;;;;;6.13;1.30;;;;;;;;;;5014546;28;20052;-66
2022/07/03 14:02:43;;;;;;;3.03;1.20;;;;;;;;;;5015940;28;20515;-67
2022/07/03 14:05:10;;;;;;;4.10;1.25;;;;;;;;;;5020656;28;20564;-66
2022/07/03 14:07:37;;;;;;;3.45;1.40;;;;;;;;;;5020372;28;20359;-66
2022/07/03 14:10:05;;;;;;;3.17;1.50;;;;;;;;;;5013817;28;20056;-66
2022/07/03 14:12:34;;;;;;;3.85;1.40;;;;;;;;;;5020413;28;20057;-66
2022/07/03 14:15:01;;;;;;;6.22;1.65;;;;;;;;;;5020944;28;20695;-66
2022/07/03 14:17:29;;;;;;;4.40;1.33;;;;;;;;;;5019642;28;20156;-68
2022/07/03 14:19:56;;;;;;;4.43;1.30;;;;;;;;;;5016382;28;20127;-69
2022/07/03 14:22:23;;;;;;;3.40;1.20;;;;;;;;;;5017743;28;20558;-69
2022/07/03 14:24:50;;;;;;;3.08;1.10;;;;;;;;;;4998383;28;20045;-68
2022/07/03 14:32:49;;;;;;;3.10;1.15;;;;;;;;;;5014272;28;20554;-69
2022/07/03 14:35:16;;;;;;;4.43;1.20;;;;;;;;;;5018756;28;20053;-69
2022/07/03 14:37:43;;;;;;;4.60;1.20;;;;;;;;;;5003688;28;20450;-69
2022/07/03 14:40:11;;;;;;;3.53;0.90;;;;;;;;;;5018157;28;20049;-69
2022/07/03 14:42:38;;;;;;;3.55;0.90;;;;;;;;;;5023426;28;20046;-69
2022/07/03 14:45:08;;;;;;;5.45;1.00;;;;;;;;;;5024480;28;20057;-69
2022/07/03 14:47:35;;;;;;;4.78;1.10;;;;;;;;;;5020589;28;20049;-69
2022/07/03 14:50:03;;;;;;;3.00;1.08;;;;;;;;;;5017030;28;20050;-69
2022/07/03 14:52:30;;;;;;;5.70;1.13;;;;;;;;;;5021458;28;20083;-69
2022/07/03 14:54:57;;;;;;;4.00;1.42;;;;;;;;;;5019239;28;20124;-69
2022/07/03 14:57:27;;;;;;;5.60;1.42;;;;;;;;;;5018720;28;20081;-69
2022/07/03 15:00:03;;;;;;;3.83;1.30;;;;;;;;;;5017237;28;20037;-69
2022/07/03 15:02:34;;;;;;;3.85;1.00;;;;;;;;;;4997573;28;20062;-69
2022/07/03 15:05:07;;;;;;;5.47;1.55;;;;;;;;;;5020014;28;20141;-69